FW3598 Weather Reports


time (UTC)temp
C
wind
direction
speed
KPH
gust
KPH
rain 1hr
cm
rain 24hr
cm
rain mn
cm
humidity
%
barometer
mb
20220811234145 26 187 6.4 20.9 0.00 0.00 0.00 54 1016.2
20220811233204 26 160 6.4 25.7 0.00 0.00 0.00 54 1016.2
20220811232142 26 168 8.0 22.5 0.00 0.00 0.00 54 1016.2
20220811231121 26 189 8.0 20.9 0.00 0.00 0.00 54 1016.2
20220811230121 26 173 8.0 20.9 0.00 0.00 0.00 55 1016.5
20220811225125 25 172 9.7 20.9 0.00 0.00 0.00 56 1016.6
20220811224121 25 198 6.4 19.3 0.00 0.00 0.00 55 1016.8
20220811223125 26 186 6.4 22.5 0.00 0.00 0.00 56 1016.8
20220811222250 25 168 6.4 22.5 0.00 0.00 0.00 58 1016.8
20220811222203 25 173 6.4 16.1 0.00 0.00 0.00 57 1016.8
20220811221203 26 200 8.0 22.5 0.00 0.00 0.00 56 1017.0
20220811220143 26 244 4.8 17.7 0.00 0.00 0.00 57 1017.2
20220811215144 26 211 6.4 20.9 0.00 0.00 0.00 58 1017.2
20220811214124 25 236 6.4 17.7 0.00 0.00 0.00 58 1017.2
20220811213121 26 226 6.4 17.7 0.00 0.00 0.00 58 1017.2
20220811212124 25 271 6.4 17.7 0.00 0.00 0.00 59 1017.2
20220811211121 26 293 6.4 19.3 0.00 0.00 0.00 59 1017.4
20220811210121 25 300 6.4 19.3 0.00 0.00 0.00 60 1017.5
20220811205121 25 186 6.4 19.3 0.00 0.00 0.00 60 1017.6
20220811204121 25 254 6.4 20.9 0.00 0.00 0.00 61 1017.7
20220811203125 25 240 6.4 20.9 0.00 0.00 0.00 62 1017.7
20220811202204 25 206 6.4 17.7 0.00 0.00 0.00 61 1017.7
20220811201125 25 193 6.4 24.1 0.00 0.00 0.00 61 1017.7
20220811200122 25 146 4.8 16.1 0.00 0.00 0.00 58 1017.9
20220811195122 25 140 6.4 20.9 0.00 0.00 0.00 59 1017.9
20220811194143 25 159 6.4 16.1 0.00 0.00 0.00 60 1018.0
20220811193122 24 133 6.4 19.3 0.00 0.00 0.00 60 1018.1
20220811192125 24 123 8.0 17.7 0.00 0.00 0.00 61 1018.1
20220811191143 24 122 4.8 16.1 0.00 0.00 0.00 62 1018.2
20220811190147 25 158 4.8 14.5 0.00 0.00 0.00 60 1018.4
20220811185123 23 171 4.8 12.9 0.00 0.00 0.00 64 1018.4
20220811184122 23 115 3.2 16.1 0.00 0.00 0.00 63 1018.6
20220811183122 23 129 4.8 16.1 0.00 0.00 0.00 64 1018.7
20220811182122 22 135 4.8 12.9 0.00 0.00 0.00 67 1018.7
20220811181207 22 129 6.4 12.9 0.00 0.00 0.00 67 1018.7
20220811180204 22 152 4.8 14.5 0.00 0.00 0.00 68 1018.8
20220811175207 22 132 3.2 11.3 0.00 0.00 0.00 68 1018.8
20220811174143 22 108 4.8 12.9 0.00 0.00 0.00 68 1018.9
20220811173122 22 116 4.8 17.7 0.00 0.00 0.00 69 1018.8
20220811172143 21 132 3.2 12.9 0.00 0.00 0.00 71 1018.8
20220811171204 21 142 4.8 14.5 0.00 0.00 0.00 72 1018.8
20220811170143 21 153 4.8 12.9 0.00 0.00 0.00 72 1019.0
20220811165143 20 123 4.8 12.9 0.00 0.00 0.00 73 1018.9
20220811164125 20 145 6.4 14.5 0.00 0.00 0.00 75 1019.0
20220811163122 20 141 4.8 12.9 0.00 0.00 0.00 77 1019.0
20220811162122 19 167 3.2 11.3 0.00 0.00 0.00 78 1019.0
20220811161143 18 144 4.8 12.9 0.00 0.00 0.00 82 1019.1
20220811160122 18 121 4.8 14.5 0.00 0.00 0.00 83 1019.2
20220811155208 18 148 4.8 12.9 0.00 0.00 0.00 84 1019.1
20220811154143 17 101 4.8 12.9 0.00 0.00 0.00 85 1019.2
20220811153207 17 114 4.8 16.1 0.00 0.00 0.00 85 1019.2
20220811152144 17 109 4.8 12.9 0.00 0.00 0.00 86 1019.2
20220811151122 17 85 1.6 6.4 0.00 0.00 0.00 88 1019.2
20220811150122 16 101 4.8 12.9 0.00 0.00 0.00 89 1019.2
20220811145204 16 101 1.6 6.4 0.00 0.00 0.00 92 1019.2
20220811144207 16 114 1.6 8.0 0.00 0.00 0.00 93 1019.2
20220811143122 16 96 1.6 9.7 0.00 0.00 0.00 94 1019.2
20220811142122 15 101 3.2 11.3 0.00 0.00 0.00 94 1019.2
20220811141143 15 127 1.6 6.4 0.00 0.00 0.00 94 1019.2
20220811140143 15 101 1.6 6.4 0.00 0.00 0.00 94 1019.2
20220811135143 15 116 1.6 11.3 0.00 0.00 0.00 94 1019.4
20220811134143 15 147 0.0 6.4 0.00 0.00 0.00 93 1019.2
20220811133122 15 104 1.6 8.0 0.00 0.00 0.00 93 1019.2
20220811132143 15 135 1.6 9.7 0.00 0.00 0.00 92 1019.2
20220811131125 15 106 1.6 9.7 0.00 0.00 0.00 91 1019.1
20220811130204 15 134 0.0 4.8 0.00 0.00 0.00 89 1019.1
20220811125146 15 123 1.6 4.8 0.00 0.00 0.00 89 1019.0
20220811124122 16 122 1.6 6.4 0.00 0.00 0.00 88 1019.0
20220811123143 16 105 0.0 4.8 0.00 0.00 0.00 88 1018.9
20220811122146 16 56 0.0 3.2 0.00 0.00 0.00 87 1018.9
20220811121123 16 45 0.0 0.0 0.00 0.00 0.00 86 1018.8
20220811120204 16 75 0.0 4.8 0.00 0.00 0.00 86 1018.9
20220811115204 16 94 0.0 4.8 0.00 0.00 0.00 85 1018.9
20220811114207 16 101 0.0 4.8 0.00 0.00 0.00 85 1019.2
20220811113204 16 118 1.6 6.4 0.00 0.00 0.00 85 1019.1
20220811112122 16 104 3.2 9.7 0.00 0.00 0.00 85 1019.1
20220811111204 17 101 1.6 6.4 0.00 0.00 0.00 84 1019.1
20220811110204 17 88 1.6 8.0 0.00 0.00 0.00 84 1019.2
20220811105207 17 82 1.6 6.4 0.00 0.00 0.00 84 1019.2
20220811104122 17 97 1.6 6.4 0.00 0.00 0.00 83 1019.4
20220811103147 17 105 3.2 12.9 0.00 0.00 0.00 83 1019.4
20220811102122 17 99 3.2 11.3 0.00 0.00 0.00 83 1019.4
20220811101143 17 112 1.6 11.3 0.00 0.00 0.00 82 1019.4
20220811100124 18 99 3.2 8.0 0.00 0.00 0.00 82 1019.2
20220811095122 18 102 3.2 9.7 0.00 0.00 0.00 81 1019.2
20220811094207 18 113 0.0 8.0 0.00 0.00 0.00 81 1019.4
20220811093122 18 121 1.6 6.4 0.00 0.00 0.00 80 1019.5
20220811092121 18 135 1.6 6.4 0.00 0.00 0.00 80 1019.5
20220811091121 18 110 1.6 6.4 0.00 0.00 0.00 79 1019.6
20220811090143 18 94 1.6 6.4 0.00 0.00 0.00 79 1019.5
20220811085142 18 87 1.6 8.0 0.00 0.00 0.00 79 1019.5
20220811084143 18 101 3.2 12.9 0.00 0.00 0.00 79 1019.5
20220811083203 18 88 6.4 14.5 0.00 0.00 0.00 79 1019.5
20220811082142 18 108 3.2 12.9 0.00 0.00 0.00 79 1019.5
20220811081142 18 92 4.8 12.9 0.00 0.00 0.00 79 1019.5
20220811080142 18 98 4.8 12.9 0.00 0.00 0.00 79 1019.4
20220811075122 19 102 6.4 17.7 0.00 0.00 0.00 79 1019.5
20220811074142 19 101 6.4 22.5 0.00 0.00 0.00 79 1019.4
20220811073143 19 101 4.8 16.1 0.00 0.00 0.00 79 1019.2
20220811072203 19 96 4.8 14.5 0.00 0.00 0.00 79 1019.2
20220811071203 19 76 3.2 11.3 0.00 0.00 0.00 79 1019.4
20220811070142 19 79 3.2 12.9 0.00 0.00 0.00 79 1019.2
20220811065203 19 88 1.6 9.7 0.00 0.00 0.00 79 1019.2
20220811064142 19 91 1.6 14.5 0.00 0.00 0.00 79 1019.2
20220811063121 19 45 1.6 8.0 0.00 0.00 0.00 79 1019.2
20220811062142 19 81 1.6 12.9 0.00 0.00 0.00 79 1019.2
20220811061121 19 85 3.2 12.9 0.00 0.00 0.00 79 1019.2
20220811060121 19 81 1.6 11.3 0.00 0.00 0.00 79 1019.1
20220811055121 19 80 1.6 11.3 0.00 0.00 0.00 79 1019.2
20220811054203 19 82 3.2 12.9 0.00 0.00 0.00 79 1019.0
20220811053121 19 95 4.8 14.5 0.00 0.00 0.00 79 1019.1
20220811052142 18 80 4.8 16.1 0.00 0.00 0.00 80 1019.1
20220811051142 18 71 4.8 17.7 0.00 0.00 0.00 80 1019.0
20220811050142 18 97 6.4 20.9 0.00 0.00 0.00 81 1018.9
20220811045203 18 93 4.8 12.9 0.00 0.00 0.00 82 1019.0
20220811044142 18 94 4.8 12.9 0.00 0.00 0.00 82 1018.8
20220811043142 18 95 4.8 12.9 0.00 0.00 0.00 82 1018.8
20220811042121 18 106 3.2 12.9 0.00 0.00 0.00 82 1018.8
20220811041121 18 93 3.2 11.3 0.00 0.00 0.00 82 1018.8
20220811040203 18 98 6.4 19.3 0.00 0.00 0.00 82 1018.8
20220811035203 18 103 6.4 16.1 0.00 0.00 0.00 82 1018.5
20220811034121 19 117 4.8 12.9 0.00 0.00 0.00 81 1018.4
20220811033203 19 83 1.6 6.4 0.00 0.00 0.00 81 1018.2
20220811032121 19 89 1.6 12.9 0.00 0.00 0.00 81 1018.2
20220811031121 19 95 3.2 12.9 0.00 0.00 0.00 81 1018.2
20220811030121 19 89 1.6 11.3 0.00 0.00 0.00 82 1018.2
20220811025121 19 100 6.4 14.5 0.00 0.00 0.00 82 1018.0
20220811024121 19 85 4.8 16.1 0.00 0.00 0.00 82 1018.0
20220811023142 18 94 8.0 20.9 0.00 0.00 0.00 82 1017.9
20220811022203 19 85 9.7 22.5 0.00 0.00 0.00 81 1017.9
20220811021121 19 104 9.7 27.4 0.00 0.00 0.00 81 1018.0
20220811020142 20 92 8.0 20.9 0.00 0.00 0.00 80 1017.8
20220811015121 20 93 8.0 22.5 0.00 0.00 0.00 78 1017.7
20220811014121 20 89 8.0 22.5 0.00 0.00 0.00 78 1017.5
20220811013143 21 78 8.0 25.7 0.00 0.00 0.00 76 1017.4
20220811012204 22 113 8.0 25.7 0.00 0.00 0.00 75 1017.4
20220811011121 21 88 8.0 25.7 0.00 0.00 0.00 75 1017.2
20220811010142 21 114 9.7 27.4 0.00 0.00 0.00 75 1017.2
20220811005203 21 109 9.7 24.1 0.00 0.00 0.00 76 1017.1
20220811004203 21 110 8.0 24.1 0.00 0.00 0.00 75 1017.1
20220811003142 21 101 8.0 22.5 0.00 0.00 0.00 74 1016.9
20220811002121 21 107 8.0 20.9 0.00 0.00 0.00 74 1016.9
20220811001142 21 102 8.0 22.5 0.00 0.00 0.00 75 1016.7
20220811000121 22 115 9.7 29.0 0.00 0.00 0.00 74 1016.7
20220810235121 21 108 8.0 20.9 0.00 0.00 0.00 75 1016.6